Time;durP1;ratioP1;P1;durP2;ratioP2;P2;SDS_P1;SDS_P2;PMS_P1;PMS_P2;Temp;Humidity;BMP_temperature;BMP_pressure;BME280_temperature;BME280_humidity;BME280_pressure;Samples;Min_cycle;Max_cycle;Signal;HPM_P1;HPM_P2
2023/07/08 00:00:23;;;;;;;13.65;6.63;;;15.40;99.90;;;;;;5117287;28;20101;-73
2023/07/08 00:02:49;;;;;;;10.82;6.57;;;15.30;99.90;;;;;;5116939;28;20024;-72
2023/07/08 00:05:17;;;;;;;9.65;5.93;;;15.30;99.90;;;;;;5117497;28;20081;-72
2023/07/08 00:07:43;;;;;;;11.90;7.00;;;15.40;99.90;;;;;;5116895;28;20020;-73
2023/07/08 00:10:19;;;;;;;12.63;7.10;;;15.40;99.90;;;;;;5117115;28;20495;-73
2023/07/08 00:12:46;;;;;;;13.07;7.18;;;15.30;99.90;;;;;;5098682;28;20451;-72
2023/07/08 00:15:12;;;;;;;12.25;7.03;;;15.30;99.90;;;;;;5117026;28;20488;-72
2023/07/08 00:17:38;;;;;;;12.23;7.13;;;15.20;99.90;;;;;;5116735;28;20109;-73
2023/07/08 00:20:13;;;;;;;11.35;6.63;;;15.10;99.90;;;;;;5116782;28;20044;-73
2023/07/08 00:22:40;;;;;;;12.00;6.60;;;15.10;99.90;;;;;;5116577;28;20102;-72
2023/07/08 00:25:07;;;;;;;13.60;6.35;;;15.20;99.90;;;;;;5098707;28;20028;-73
2023/07/08 00:27:33;;;;;;;10.85;5.90;;;15.20;99.90;;;;;;5116871;28;20034;-73
2023/07/08 00:30:00;;;;;;;11.65;6.35;;;15.20;99.90;;;;;;5116346;28;20020;-74
2023/07/08 00:32:26;;;;;;;12.45;6.78;;;15.20;99.90;;;;;;5064982;28;20459;-72
2023/07/08 00:34:51;;;;;;;13.23;7.40;;;15.30;99.90;;;;;;5116404;28;20059;-72
2023/07/08 00:37:17;;;;;;;13.00;7.82;;;15.30;99.90;;;;;;5098509;28;20338;-73
2023/07/08 00:39:43;;;;;;;12.27;7.05;;;15.30;99.90;;;;;;5098079;28;20066;-73
2023/07/08 00:42:19;;;;;;;13.48;8.00;;;15.30;99.90;;;;;;5116200;28;20038;-72
2023/07/08 00:44:45;;;;;;;16.08;8.07;;;15.30;99.90;;;;;;5116257;28;20028;-73
2023/07/08 00:47:13;;;;;;;14.18;7.93;;;15.20;99.90;;;;;;5116149;28;20122;-73
2023/07/08 00:49:47;;;;;;;15.18;8.38;;;15.10;99.90;;;;;;5097757;28;20023;-72
2023/07/08 00:52:26;;;;;;;14.07;7.57;;;15.00;99.90;;;;;;5116349;28;20031;-72
2023/07/08 00:54:54;;;;;;;12.35;6.93;;;15.00;99.90;;;;;;5116145;28;20103;-73
2023/07/08 00:57:23;;;;;;;10.27;6.93;;;14.90;99.90;;;;;;5115970;28;20473;-72
2023/07/08 00:59:58;;;;;;;12.63;7.13;;;14.80;99.90;;;;;;5115930;28;20122;-73
2023/07/08 01:02:26;;;;;;;11.70;6.35;;;14.80;99.90;;;;;;5116068;28;20027;-72
2023/07/08 01:05:17;;;;;;;11.75;6.63;;;14.80;99.90;;;;;;5108101;28;20044;-72
2023/07/08 01:07:47;;;;;;;12.85;8.00;;;14.80;99.90;;;;;;5077530;28;20020;-72
2023/07/08 01:10:17;;;;;;;13.55;6.93;;;14.60;99.90;;;;;;5077482;28;20056;-71
2023/07/08 01:12:47;;;;;;;11.68;6.65;;;14.50;99.90;;;;;;5114878;28;20024;-72
2023/07/08 01:15:14;;;;;;;11.63;6.88;;;14.50;99.90;;;;;;5112405;28;20023;-71
2023/07/08 01:17:43;;;;;;;11.70;6.80;;;14.40;99.90;;;;;;5095373;28;20031;-72
2023/07/08 01:20:15;;;;;;;12.10;7.22;;;14.50;99.90;;;;;;5112559;28;20020;-72
2023/07/08 01:22:42;;;;;;;13.00;6.68;;;14.50;99.90;;;;;;5114670;28;20058;-72
2023/07/08 01:25:09;;;;;;;11.55;6.68;;;14.50;99.90;;;;;;5114815;28;20035;-72
2023/07/08 01:27:39;;;;;;;12.05;6.88;;;14.60;99.90;;;;;;5114745;28;20038;-72
2023/07/08 01:30:06;;;;;;;12.25;6.72;;;14.50;99.90;;;;;;5114810;28;20081;-74
2023/07/08 01:32:35;;;;;;;13.77;7.10;;;14.50;99.90;;;;;;5114567;28;20036;-72
2023/07/08 01:35:03;;;;;;;13.13;6.82;;;14.50;99.90;;;;;;5114649;28;20041;-72
2023/07/08 01:37:42;;;;;;;12.52;7.35;;;14.30;99.90;;;;;;5114329;28;20036;-72
2023/07/08 01:40:33;;;;;;;11.63;6.55;;;14.20;99.90;;;;;;5114873;28;20130;-72
2023/07/08 01:43:01;;;;;;;11.27;6.50;;;14.10;99.90;;;;;;5115395;28;20022;-72
2023/07/08 01:45:32;;;;;;;11.77;6.78;;;14.00;99.90;;;;;;5115183;28;20023;-73
2023/07/08 01:48:17;;;;;;;13.13;6.80;;;13.90;99.90;;;;;;5115639;28;20015;-73
2023/07/08 01:50:56;;;;;;;12.18;6.78;;;13.90;99.90;;;;;;5115214;28;20019;-73
2023/07/08 01:53:35;;;;;;;13.05;7.40;;;14.00;99.90;;;;;;5115094;28;20068;-73
2023/07/08 01:56:01;;;;;;;12.27;6.65;;;14.00;99.90;;;;;;5115154;28;20423;-73
2023/07/08 01:58:27;;;;;;;13.05;7.30;;;14.00;99.90;;;;;;5114652;28;20044;-73
2023/07/08 02:00:54;;;;;;;11.07;6.75;;;14.00;99.90;;;;;;5114776;28;20058;-73
2023/07/08 02:03:20;;;;;;;13.32;6.75;;;14.00;99.90;;;;;;5114767;28;20015;-73
2023/07/08 02:05:45;;;;;;;11.93;6.68;;;13.80;99.90;;;;;;5114653;28;20026;-73
2023/07/08 02:08:11;;;;;;;13.30;6.70;;;13.80;99.90;;;;;;5114299;28;20023;-73
2023/07/08 02:10:39;;;;;;;13.65;8.00;;;13.60;99.90;;;;;;5114506;28;20035;-73
2023/07/08 02:13:05;;;;;;;13.30;7.75;;;13.60;99.90;;;;;;5114663;28;20523;-73
2023/07/08 02:15:30;;;;;;;14.43;7.85;;;13.50;99.90;;;;;;5114458;28;20031;-73
2023/07/08 02:17:56;;;;;;;11.88;6.85;;;13.40;99.90;;;;;;5114997;28;20027;-73
2023/07/08 02:20:22;;;;;;;13.05;6.47;;;13.40;99.90;;;;;;5114671;28;20424;-73
2023/07/08 02:22:48;;;;;;;11.13;6.60;;;13.50;99.90;;;;;;5096262;28;20020;-73
2023/07/08 02:25:13;;;;;;;13.18;6.57;;;13.60;99.90;;;;;;5114603;28;20465;-73
2023/07/08 02:27:39;;;;;;;11.32;6.63;;;13.60;99.90;;;;;;5114242;28;20565;-72
2023/07/08 02:30:06;;;;;;;10.93;6.30;;;13.70;99.90;;;;;;5114042;28;20161;-74
2023/07/08 02:32:35;;;;;;;12.70;7.15;;;13.70;99.90;;;;;;5114579;28;20081;-73
2023/07/08 02:35:03;;;;;;;15.30;7.43;;;13.70;99.90;;;;;;5114160;28;20038;-73
2023/07/08 02:37:29;;;;;;;13.20;6.65;;;13.60;99.90;;;;;;5114151;28;20019;-73
2023/07/08 02:39:55;;;;;;;11.20;6.75;;;13.60;99.90;;;;;;5114033;28;20111;-73
2023/07/08 02:42:21;;;;;;;12.75;6.35;;;13.60;99.90;;;;;;5114246;28;20047;-73
2023/07/08 02:44:47;;;;;;;13.75;6.75;;;13.60;99.90;;;;;;5113998;28;20095;-73
2023/07/08 02:47:12;;;;;;;12.73;6.88;;;13.60;99.90;;;;;;5114021;28;20435;-73
2023/07/08 02:49:38;;;;;;;12.80;7.55;;;13.50;99.90;;;;;;5114231;28;20038;-74
2023/07/08 02:52:04;;;;;;;12.77;6.97;;;13.60;99.90;;;;;;5114199;28;20024;-73
2023/07/08 02:54:29;;;;;;;9.63;5.95;;;13.60;99.90;;;;;;5095586;28;20028;-73
2023/07/08 02:56:55;;;;;;;13.73;6.95;;;13.60;99.90;;;;;;5095739;28;20085;-74
2023/07/08 02:59:21;;;;;;;10.35;6.18;;;13.60;99.90;;;;;;5113703;28;20031;-73
2023/07/08 03:01:46;;;;;;;12.65;6.88;;;13.60;99.90;;;;;;5096567;28;20062;-74
2023/07/08 03:04:13;;;;;;;12.38;6.75;;;13.50;99.90;;;;;;5113864;28;20103;-73
2023/07/08 03:06:43;;;;;;;12.20;6.65;;;13.50;99.90;;;;;;5113735;28;20032;-73
2023/07/08 03:09:11;;;;;;;11.75;6.95;;;13.60;99.90;;;;;;5114039;28;20107;-73
2023/07/08 03:11:38;;;;;;;11.35;6.40;;;13.50;99.90;;;;;;5113644;28;20028;-72
2023/07/08 03:14:04;;;;;;;12.77;7.00;;;13.50;99.90;;;;;;5113616;28;20381;-73
2023/07/08 03:16:30;;;;;;;12.57;6.78;;;13.50;99.90;;;;;;5113684;28;20032;-73
2023/07/08 03:18:56;;;;;;;12.15;7.60;;;13.50;99.90;;;;;;5116422;28;20035;-74
2023/07/08 03:21:21;;;;;;;12.20;6.78;;;13.40;99.90;;;;;;5099722;28;20031;-73
2023/07/08 03:23:51;;;;;;;12.15;6.63;;;13.20;99.90;;;;;;5117847;28;20467;-73
2023/07/08 03:26:22;;;;;;;11.68;7.03;;;13.20;99.90;;;;;;5117743;28;20031;-74
2023/07/08 03:28:48;;;;;;;;;;;13.20;99.90;;;;;;5118087;28;20116;-74
2023/07/08 03:31:14;;;;;;;12.73;6.95;;;13.20;99.90;;;;;;5117544;28;19911;-74
2023/07/08 03:33:43;;;;;;;11.68;6.82;;;13.30;99.90;;;;;;5118029;28;20104;-71
2023/07/08 03:36:13;;;;;;;12.32;7.00;;;13.30;99.90;;;;;;5117547;28;20397;-71
2023/07/08 03:38:39;;;;;;;11.55;6.53;;;13.30;99.90;;;;;;5117664;28;20098;-71
2023/07/08 03:41:05;;;;;;;10.68;6.07;;;13.30;99.90;;;;;;5117976;28;20111;-71
2023/07/08 03:43:31;;;;;;;11.18;6.40;;;13.30;99.90;;;;;;5117351;28;20485;-71
2023/07/08 03:45:56;;;;;;;12.20;6.90;;;13.20;99.90;;;;;;5117587;28;20057;-71
2023/07/08 03:48:22;;;;;;;12.90;7.07;;;13.10;99.90;;;;;;5117299;28;20016;-71
2023/07/08 03:50:48;;;;;;;13.18;6.70;;;13.10;99.90;;;;;;5099197;28;20489;-71
2023/07/08 03:53:13;;;;;;;11.07;7.10;;;13.00;99.90;;;;;;5117156;28;20101;-71
2023/07/08 03:55:39;;;;;;;14.45;7.00;;;13.00;99.90;;;;;;5099244;28;20031;-71
2023/07/08 03:58:05;;;;;;;13.52;6.72;;;13.00;99.90;;;;;;5098851;28;20055;-71
2023/07/08 04:00:30;;;;;;;11.18;6.47;;;13.00;99.90;;;;;;5116988;28;20059;-71
2023/07/08 04:02:56;;;;;;;13.35;7.15;;;13.10;99.90;;;;;;5117371;28;20374;-71
2023/07/08 04:05:23;;;;;;;13.23;6.72;;;13.10;99.90;;;;;;5081839;28;20049;-71
2023/07/08 04:07:48;;;;;;;12.27;6.85;;;13.10;99.90;;;;;;5117198;28;20048;-71
2023/07/08 04:10:16;;;;;;;11.27;6.38;;;13.00;99.90;;;;;;5116904;28;20059;-71
2023/07/08 04:12:42;;;;;;;13.32;7.30;;;13.00;99.90;;;;;;5098876;28;20027;-71
2023/07/08 04:15:10;;;;;;;11.32;6.90;;;13.00;99.90;;;;;;5116815;28;20031;-71
2023/07/08 04:17:43;;;;;;;10.88;6.38;;;12.90;99.90;;;;;;5117111;28;20039;-71
2023/07/08 04:20:11;;;;;;;13.27;7.07;;;12.90;99.90;;;;;;5117833;28;20020;-71
2023/07/08 04:22:37;;;;;;;12.20;6.93;;;12.90;99.90;;;;;;5117384;28;20503;-71
2023/07/08 04:25:05;;;;;;;14.02;7.40;;;12.90;99.90;;;;;;5117280;28;20020;-71
2023/07/08 04:27:31;;;;;;;11.65;6.28;;;13.00;99.90;;;;;;5117145;28;20561;-71
2023/07/08 04:29:57;;;;;;;10.90;6.22;;;13.10;99.90;;;;;;5116244;28;20059;-72
2023/07/08 04:32:25;;;;;;;12.07;7.38;;;13.10;99.90;;;;;;5098246;28;20552;-71
2023/07/08 04:34:52;;;;;;;13.05;7.40;;;13.20;99.90;;;;;;5116456;28;20028;-71
2023/07/08 04:37:19;;;;;;;14.88;7.82;;;13.30;99.90;;;;;;5116417;28;20031;-71
2023/07/08 04:39:45;;;;;;;14.60;7.38;;;13.30;99.90;;;;;;5116272;28;20085;-71
2023/07/08 04:42:13;;;;;;;11.85;6.88;;;13.40;99.90;;;;;;5098436;28;20028;-71
2023/07/08 04:44:38;;;;;;;10.20;6.03;;;13.40;99.90;;;;;;5116296;28;20030;-71
2023/07/08 04:47:04;;;;;;;14.70;6.28;;;13.50;99.90;;;;;;5116174;28;20031;-71
2023/07/08 04:49:33;;;;;;;11.57;6.55;;;13.50;99.90;;;;;;5116501;28;20032;-71
2023/07/08 04:51:59;;;;;;;10.57;6.50;;;13.50;99.90;;;;;;5116073;28;20024;-71
2023/07/08 04:54:25;;;;;;;13.30;6.95;;;13.60;99.90;;;;;;5116001;28;20031;-71
2023/07/08 04:56:52;;;;;;;14.10;7.43;;;13.60;99.90;;;;;;5115984;28;20038;-71
2023/07/08 04:59:21;;;;;;;12.40;7.32;;;13.60;99.90;;;;;;5098107;28;20027;-71
2023/07/08 05:01:47;;;;;;;13.88;7.38;;;13.70;99.90;;;;;;5097788;28;20023;-71
2023/07/08 05:04:14;;;;;;;11.35;6.60;;;13.70;99.90;;;;;;5115797;28;20026;-71
2023/07/08 05:06:41;;;;;;;12.98;7.25;;;13.80;99.90;;;;;;5115919;28;20035;-71
2023/07/08 05:09:07;;;;;;;11.68;6.57;;;13.80;99.90;;;;;;5115744;28;20481;-71
2023/07/08 05:11:34;;;;;;;16.48;7.05;;;13.80;99.90;;;;;;5115997;28;20465;-71
2023/07/08 05:14:01;;;;;;;12.82;6.97;;;13.80;99.90;;;;;;5115662;28;20397;-71
2023/07/08 05:16:27;;;;;;;10.50;6.57;;;13.80;99.90;;;;;;5115581;28;20034;-71
2023/07/08 05:18:53;;;;;;;12.90;7.43;;;13.90;99.90;;;;;;5115795;28;20115;-71
2023/07/08 05:21:20;;;;;;;11.35;6.78;;;13.90;99.90;;;;;;5115594;28;20027;-71
2023/07/08 05:23:49;;;;;;;12.27;6.85;;;13.90;99.90;;;;;;5097125;28;20024;-71
2023/07/08 05:26:15;;;;;;;13.98;7.40;;;14.00;99.90;;;;;;5115288;28;20428;-71
2023/07/08 05:28:41;;;;;;;13.07;7.82;;;14.00;99.90;;;;;;5115386;28;20024;-71
2023/07/08 05:31:06;;;;;;;12.98;7.88;;;14.10;99.90;;;;;;5115348;28;20043;-72
2023/07/08 05:33:33;;;;;;;11.30;7.03;;;14.20;99.90;;;;;;5115527;28;20070;-71
2023/07/08 05:35:58;;;;;;;13.90;7.75;;;14.30;99.90;;;;;;5113670;28;20028;-71
2023/07/08 05:38:25;;;;;;;12.45;7.25;;;14.30;99.90;;;;;;5115634;28;20512;-71
2023/07/08 05:40:54;;;;;;;14.52;7.60;;;14.40;99.90;;;;;;5115088;28;20108;-71
2023/07/08 05:43:20;;;;;;;15.13;8.38;;;14.50;99.90;;;;;;5113870;28;20090;-72
2023/07/08 05:45:46;;;;;;;14.73;7.70;;;14.60;99.90;;;;;;5096456;28;20522;-72
2023/07/08 05:48:11;;;;;;;14.95;7.47;;;14.70;99.90;;;;;;5114974;28;20051;-72
2023/07/08 05:50:39;;;;;;;14.32;8.02;;;14.80;99.90;;;;;;5114673;28;20030;-72
2023/07/08 05:53:04;;;;;;;16.60;8.38;;;14.80;99.90;;;;;;5114539;28;20024;-72
2023/07/08 05:55:32;;;;;;;14.10;7.65;;;14.90;99.90;;;;;;5114762;28;20443;-72
2023/07/08 05:57:57;;;;;;;13.82;7.63;;;15.00;99.90;;;;;;5096803;28;20381;-72
2023/07/08 06:00:23;;;;;;;17.60;8.15;;;15.00;99.90;;;;;;5114444;28;20027;-71
2023/07/08 06:02:49;;;;;;;16.70;9.25;;;15.20;99.90;;;;;;5114538;28;20016;-71
2023/07/08 06:05:15;;;;;;;14.85;8.10;;;15.30;99.90;;;;;;5113272;28;20025;-72
2023/07/08 06:07:40;;;;;;;13.93;8.30;;;15.40;99.90;;;;;;5112570;28;20028;-72
2023/07/08 06:10:07;;;;;;;17.08;9.13;;;15.50;99.90;;;;;;5112742;28;20085;-72
2023/07/08 06:12:33;;;;;;;16.33;9.13;;;15.60;99.90;;;;;;5113058;28;20082;-71
2023/07/08 06:14:58;;;;;;;14.82;8.63;;;15.70;99.90;;;;;;5112723;28;20056;-72
2023/07/08 06:17:24;;;;;;;14.25;8.65;;;15.80;99.90;;;;;;5094908;28;20031;-72
2023/07/08 06:19:50;;;;;;;16.60;9.23;;;15.90;99.90;;;;;;5111442;28;20032;-72
2023/07/08 06:22:16;;;;;;;13.70;8.10;;;16.00;99.90;;;;;;5114250;28;20039;-71
2023/07/08 06:24:41;;;;;;;16.13;8.95;;;16.10;99.90;;;;;;5113872;28;20054;-71
2023/07/08 06:27:07;;;;;;;19.10;9.90;;;16.20;99.90;;;;;;5114629;28;20032;-72
2023/07/08 06:29:34;;;;;;;17.45;9.23;;;16.30;99.90;;;;;;5114242;28;20027;-72
2023/07/08 06:32:00;;;;;;;12.82;8.15;;;16.40;99.90;;;;;;5114337;28;20077;-72
2023/07/08 06:34:26;;;;;;;16.27;8.82;;;16.60;99.90;;;;;;5114062;28;20059;-72
2023/07/08 06:36:52;;;;;;;16.80;8.98;;;16.70;99.90;;;;;;5114073;28;20069;-71
2023/07/08 06:39:18;;;;;;;15.88;8.38;;;16.80;99.90;;;;;;5114035;28;20080;-71
2023/07/08 06:41:44;;;;;;;17.85;8.98;;;16.90;99.90;;;;;;5114061;28;20469;-71
2023/07/08 06:44:10;;;;;;;14.48;8.52;;;17.00;99.90;;;;;;5113932;28;20103;-72
2023/07/08 06:46:36;;;;;;;14.50;8.23;;;17.10;99.90;;;;;;5114009;28;20051;-72
2023/07/08 06:49:01;;;;;;;13.02;8.05;;;17.30;99.90;;;;;;5095711;28;20497;-72
2023/07/08 06:51:27;;;;;;;13.60;8.27;;;17.40;99.90;;;;;;5114187;28;20027;-72
2023/07/08 06:53:53;;;;;;;18.17;8.73;;;17.50;99.90;;;;;;5113352;28;20032;-72
2023/07/08 06:56:19;;;;;;;11.82;7.70;;;17.70;99.90;;;;;;5095468;28;20039;-73
2023/07/08 06:58:44;;;;;;;16.60;8.68;;;17.90;99.90;;;;;;5113736;28;20024;-72
2023/07/08 07:01:10;;;;;;;14.50;8.23;;;18.00;99.90;;;;;;5112935;28;20031;-71
2023/07/08 07:03:36;;;;;;;11.90;7.88;;;18.20;99.90;;;;;;5113651;28;20028;-72
2023/07/08 07:06:02;;;;;;;12.93;7.97;;;18.30;99.90;;;;;;5113745;28;20030;-72
2023/07/08 07:08:27;;;;;;;14.10;7.95;;;18.50;99.90;;;;;;5112539;28;20465;-72
2023/07/08 07:10:53;;;;;;;12.95;8.23;;;18.60;99.90;;;;;;5112435;28;20062;-72
2023/07/08 07:13:18;;;;;;;13.38;8.40;;;18.70;99.90;;;;;;5113556;28;20153;-72
2023/07/08 07:15:44;;;;;;;14.07;8.25;;;18.80;99.90;;;;;;5112380;28;20378;-72
2023/07/08 07:18:10;;;;;;;14.43;8.35;;;18.90;99.90;;;;;;5112837;28;20118;-72
2023/07/08 07:20:50;;;;;;;13.43;8.02;;;19.00;99.90;;;;;;5111930;28;20032;-72
2023/07/08 07:23:16;;;;;;;14.00;8.05;;;19.10;99.90;;;;;;5110164;28;20047;-72
2023/07/08 07:25:42;;;;;;;12.02;7.88;;;19.20;99.90;;;;;;5111406;28;20512;-72
2023/07/08 07:28:08;;;;;;;14.73;8.32;;;19.30;99.90;;;;;;5093370;28;20031;-72
2023/07/08 07:30:33;;;;;;;11.23;7.40;;;19.40;99.90;;;;;;5111515;28;20036;-72
2023/07/08 07:33:00;;;;;;;11.60;7.63;;;19.40;99.90;;;;;;5111426;28;20144;-72
2023/07/08 07:35:25;;;;;;;11.95;7.32;;;19.50;99.90;;;;;;5112681;28;20035;-72
2023/07/08 07:37:51;;;;;;;12.45;7.10;;;19.70;99.90;;;;;;5113492;28;20035;-72
2023/07/08 07:40:17;;;;;;;12.38;7.60;;;19.80;99.90;;;;;;5095098;28;20042;-72
2023/07/08 07:42:44;;;;;;;11.80;7.35;;;19.90;99.90;;;;;;5113300;28;20073;-72
2023/07/08 07:45:11;;;;;;;11.52;7.05;;;20.10;99.90;;;;;;5113295;28;20028;-72
2023/07/08 07:47:36;;;;;;;11.52;7.43;;;20.10;99.90;;;;;;5095385;28;20077;-72
2023/07/08 07:50:07;;;;;;;15.63;8.55;;;20.30;99.90;;;;;;5113656;28;20031;-72
2023/07/08 07:52:36;;;;;;;13.13;7.65;;;20.40;99.90;;;;;;5113245;28;21582;-72
2023/07/08 07:55:03;;;;;;;13.05;8.02;;;20.60;99.90;;;;;;5113255;28;20027;-72
2023/07/08 07:57:29;;;;;;;14.50;8.38;;;20.60;99.90;;;;;;5113206;28;20024;-72
2023/07/08 07:59:54;;;;;;;11.20;7.25;;;20.70;99.90;;;;;;5095245;28;20413;-73
2023/07/08 08:02:20;;;;;;;13.52;8.38;;;20.90;99.90;;;;;;5113319;28;20020;-72
2023/07/08 08:04:46;;;;;;;13.63;8.90;;;21.00;99.90;;;;;;5113796;28;20396;-72
2023/07/08 08:07:12;;;;;;;11.90;8.02;;;21.10;99.90;;;;;;5117030;28;20037;-73
2023/07/08 08:09:37;;;;;;;15.07;7.97;;;21.20;99.90;;;;;;5098930;28;20424;-72
2023/07/08 08:12:04;;;;;;;10.80;6.95;;;21.30;99.90;;;;;;5116861;28;20028;-72
2023/07/08 08:14:30;;;;;;;12.10;7.03;;;21.40;99.90;;;;;;5116760;28;20038;-72
2023/07/08 08:16:56;;;;;;;12.25;7.68;;;21.50;99.90;;;;;;5116801;28;20451;-72
2023/07/08 08:19:22;;;;;;;11.52;7.20;;;21.50;99.90;;;;;;5116705;28;20023;-72
2023/07/08 08:21:48;;;;;;;15.60;7.80;;;21.60;99.90;;;;;;5116655;28;20110;-72
2023/07/08 08:24:14;;;;;;;12.68;7.35;;;21.70;99.90;;;;;;5111871;28;20453;-72
2023/07/08 08:26:39;;;;;;;11.50;7.18;;;21.80;99.90;;;;;;5106438;28;20478;-72
2023/07/08 08:29:05;;;;;;;12.80;8.15;;;22.00;99.90;;;;;;5092619;28;20035;-72
2023/07/08 08:31:33;;;;;;;11.15;7.25;;;22.10;99.90;;;;;;5103183;28;20110;-72
2023/07/08 08:33:59;;;;;;;13.15;8.02;;;22.20;99.90;;;;;;5098069;28;20057;-72
2023/07/08 08:36:25;;;;;;;11.20;7.18;;;22.30;99.90;;;;;;5116370;28;20036;-72
2023/07/08 08:38:50;;;;;;;11.85;6.18;;;22.30;99.90;;;;;;5116313;28;20059;-72
2023/07/08 08:41:20;;;;;;;13.05;6.78;;;22.30;99.60;;;;;;5084333;28;20085;-72
2023/07/08 08:43:48;;;;;;;13.77;7.53;;;22.40;98.80;;;;;;5116207;28;20015;-72
2023/07/08 08:46:23;;;;;;;10.90;7.05;;;22.40;99.70;;;;;;5090556;28;20020;-72
2023/07/08 08:48:59;;;;;;;11.75;6.80;;;22.60;99.90;;;;;;5095732;28;20073;-72
2023/07/08 08:51:28;;;;;;;13.00;7.50;;;22.80;99.90;;;;;;5095756;28;20020;-72
2023/07/08 08:53:57;;;;;;;11.68;6.97;;;23.00;99.90;;;;;;5095615;28;20027;-71
2023/07/08 08:56:38;;;;;;;10.57;6.93;;;23.20;99.40;;;;;;5095699;28;20044;-72
2023/07/08 08:59:21;;;;;;;10.00;6.72;;;23.40;99.00;;;;;;5108939;28;20024;-72
2023/07/08 09:01:48;;;;;;;10.45;6.72;;;23.60;98.70;;;;;;5115937;28;20023;-72
2023/07/08 09:04:22;;;;;;;9.50;6.80;;;23.80;97.80;;;;;;5116235;28;20118;-72
2023/07/08 09:06:48;;;;;;;9.05;6.22;;;24.00;97.60;;;;;;5115816;28;20024;-72
2023/07/08 09:09:47;;;;;;;10.10;6.20;;;24.10;97.40;;;;;;5104421;28;20112;-72
2023/07/08 09:12:26;;;;;;;10.05;6.53;;;24.30;99.00;;;;;;5116250;28;20028;-72
2023/07/08 09:14:51;;;;;;;9.40;6.90;;;24.50;98.80;;;;;;5115884;28;20152;-72
2023/07/08 09:17:31;;;;;;;10.45;6.32;;;24.70;96.20;;;;;;5115674;28;20095;-71
2023/07/08 09:20:03;;;;;;;10.07;7.13;;;24.90;95.80;;;;;;5115934;28;20030;-72
2023/07/08 09:22:38;;;;;;;11.82;5.95;;;25.00;96.00;;;;;;5115171;28;20038;-72
2023/07/08 09:25:23;;;;;;;11.00;6.78;;;25.10;95.50;;;;;;5116031;28;20027;-72
2023/07/08 09:27:49;;;;;;;9.07;6.25;;;25.10;95.20;;;;;;5097161;28;20031;-72
2023/07/08 09:30:17;;;;;;;10.45;6.60;;;25.20;95.80;;;;;;5097139;28;20039;-72
2023/07/08 09:32:43;;;;;;;11.38;5.97;;;25.30;94.70;;;;;;5115496;28;20028;-72
2023/07/08 09:35:22;;;;;;;9.82;5.82;;;25.40;93.50;;;;;;5115975;28;20028;-74
2023/07/08 09:37:48;;;;;;;9.07;6.07;;;25.60;95.20;;;;;;5115628;28;20492;-75
2023/07/08 09:40:28;;;;;;;11.13;6.03;;;25.70;93.80;;;;;;5115214;28;20397;-74
2023/07/08 09:43:03;;;;;;;9.20;5.75;;;25.80;92.70;;;;;;5115683;28;20024;-74
2023/07/08 09:45:39;;;;;;;;;;;26.00;91.20;;;;;;5115898;28;20031;-75
2023/07/08 09:48:14;;;;;;;;;;;26.10;91.80;;;;;;5115984;28;19904;-74
2023/07/08 09:50:43;;;;;;;;;;;26.30;91.10;;;;;;5115600;28;19904;-75
2023/07/08 09:53:12;;;;;;;;;;;26.30;89.50;;;;;;5097226;28;19904;-74
2023/07/08 09:55:38;;;;;;;;;;;26.50;90.30;;;;;;5115339;28;19903;-75
2023/07/08 09:58:03;;;;;;;;;;;26.70;90.50;;;;;;5097241;28;19911;-74
2023/07/08 10:00:36;;;;;;;;;;;26.80;87.80;;;;;;5097052;28;19912;-75
2023/07/08 10:03:09;;;;;;;;;;;27.00;87.10;;;;;;5115140;28;20324;-74
2023/07/08 10:05:37;;;;;;;;;;;27.10;85.40;;;;;;5115244;28;20045;-73
2023/07/08 10:08:11;;;;;;;;;;;27.20;86.80;;;;;;5109061;28;20369;-73
2023/07/08 10:10:37;;;;;;;;;;;27.30;83.50;;;;;;5111378;27;19908;-74
2023/07/08 10:13:05;;;;;;;;;;;27.40;82.20;;;;;;5135515;27;19907;-74
2023/07/08 10:15:39;;;;;;;;;;;27.40;79.80;;;;;;5120944;27;19910;-74
2023/07/08 10:18:11;;;;;;;;;;;27.40;77.40;;;;;;5108963;28;20280;-73
2023/07/08 10:20:46;;;;;;;;;;;27.50;78.20;;;;;;5112406;28;20323;-73
2023/07/08 10:23:18;;;;;;;;;;;27.60;76.70;;;;;;5110034;28;19908;-73
2023/07/08 10:25:43;;;;;;;;;;;27.60;76.20;;;;;;5114444;28;19908;-74
2023/07/08 10:28:15;;;;;;;;;;;27.70;78.10;;;;;;5113128;28;19914;-74
2023/07/08 10:30:58;;;;;;;;;;;27.80;76.60;;;;;;5113847;28;19923;-75
2023/07/08 10:33:34;;;;;;;;;;;27.90;75.00;;;;;;5114657;28;20369;-74
2023/07/08 10:36:23;;;;;;;;;;;27.90;79.60;;;;;;5114640;28;19926;-75
2023/07/08 10:39:07;;;;;;;;;;;28.10;79.10;;;;;;5100784;28;19904;-75
2023/07/08 10:41:36;;;;;;;;;;;28.20;74.80;;;;;;5114500;28;19942;-75
2023/07/08 10:44:12;;;;;;;;;;;28.30;79.40;;;;;;5114380;28;19903;-74
2023/07/08 10:46:38;;;;;;;;;;;28.50;77.90;;;;;;5114422;28;19904;-74
2023/07/08 10:49:08;;;;;;;;;;;28.70;77.80;;;;;;5114375;28;19910;-75
2023/07/08 10:51:52;;;;;;;;;;;28.90;75.60;;;;;;5114297;28;19910;-75
2023/07/08 10:54:37;;;;;;;;;;;29.00;70.30;;;;;;5113797;28;20355;-74
2023/07/08 10:57:19;;;;;;;;;;;29.10;65.70;;;;;;5113625;28;19939;-73
2023/07/08 10:59:44;;;;;;;;;;;29.30;67.30;;;;;;5095974;28;19908;-74
2023/07/08 11:02:36;;;;;;;;;;;29.40;67.30;;;;;;5114533;28;19994;-74
2023/07/08 11:05:01;;;;;;;;;;;29.50;66.40;;;;;;5114268;28;19904;-74
2023/07/08 11:07:30;;;;;;;;;;;29.60;63.60;;;;;;5114798;28;19904;-74
2023/07/08 11:09:58;;;;;;;;;;;29.70;69.10;;;;;;5114164;28;20369;-73
2023/07/08 11:12:28;;;;;;;;;;;29.80;65.40;;;;;;5114367;28;19969;-74
2023/07/08 11:15:01;;;;;;;;;;;29.90;63.40;;;;;;5114628;28;19910;-74
2023/07/08 11:17:26;;;;;;;;;;;30.00;61.60;;;;;;5114464;28;20414;-74
2023/07/08 11:19:58;;;;;;;;;;;30.10;68.30;;;;;;5114008;28;19907;-74
2023/07/08 11:22:24;;;;;;;;;;;30.30;65.70;;;;;;5095682;28;20281;-73
2023/07/08 11:24:51;;;;;;;;;;;30.40;63.50;;;;;;5114012;28;19904;-73
2023/07/08 11:27:22;;;;;;;;;;;30.60;67.70;;;;;;5095631;28;19997;-73
2023/07/08 11:29:47;;;;;;;;;;;30.70;62.10;;;;;;5114280;28;19946;-73
2023/07/08 11:32:15;;;;;;;;;;;30.60;64.00;;;;;;5113824;28;19961;-73
2023/07/08 11:34:42;;;;;;;;;;;30.50;62.10;;;;;;5113907;28;19961;-73
2023/07/08 11:37:08;;;;;;;;;;;30.50;62.40;;;;;;5114031;28;19911;-74
2023/07/08 11:39:38;;;;;;;;;;;30.50;65.50;;;;;;5113756;28;19911;-73
2023/07/08 11:42:22;;;;;;;;;;;30.60;62.30;;;;;;5114276;28;20365;-73
2023/07/08 11:44:52;;;;;;;;;;;30.50;62.70;;;;;;5102003;28;19908;-73
2023/07/08 11:47:38;;;;;;;;;;;30.50;60.40;;;;;;5097362;28;19912;-72
2023/07/08 11:50:07;;;;;;;;;;;30.60;61.50;;;;;;5107099;28;19916;-73
2023/07/08 11:52:33;;;;;;;;;;;30.50;61.90;;;;;;5101846;28;20482;-72
2023/07/08 11:55:03;;;;;;;;;;;30.50;61.10;;;;;;5097548;28;20374;-73
2023/07/08 11:57:30;;;;;;;;;;;30.50;61.20;;;;;;5099548;28;19996;-72
2023/07/08 12:00:19;;;;;;;;;;;30.60;60.40;;;;;;5101037;28;20014;-73
2023/07/08 12:02:51;;;;;;;;;;;30.70;61.40;;;;;;5070182;28;20299;-72
2023/07/08 12:05:16;;;;;;;;;;;30.70;60.50;;;;;;5107484;28;19912;-72
2023/07/08 12:07:45;;;;;;;;;;;30.60;59.10;;;;;;5116143;28;19924;-72
2023/07/08 12:10:13;;;;;;;;;;;30.60;59.30;;;;;;5106346;28;19974;-72
2023/07/08 12:12:41;;;;;;;;;;;30.50;59.60;;;;;;5117786;28;20270;-72
2023/07/08 12:15:09;;;;;;;;;;;30.50;59.80;;;;;;5116053;28;19918;-72
2023/07/08 12:17:36;;;;;;;;;;;30.50;58.10;;;;;;5107488;28;19955;-72
2023/07/08 12:20:03;;;;;;;;;;;30.40;58.40;;;;;;5104456;28;19912;-72
2023/07/08 12:22:29;;;;;;;;;;;30.40;60.20;;;;;;5115714;28;19937;-72
2023/07/08 12:24:55;;;;;;;;;;;30.40;59.60;;;;;;5114888;28;19916;-72
2023/07/08 12:27:21;;;;;;;;;;;30.30;60.20;;;;;;5115598;28;20586;-72
2023/07/08 12:29:47;;;;;;;;;;;30.40;59.60;;;;;;5114261;28;20362;-72
2023/07/08 12:32:13;;;;;;;;;;;30.40;59.70;;;;;;5116852;28;19941;-73
2023/07/08 12:34:39;;;;;;;;;;;30.40;60.10;;;;;;5109309;28;19997;-70
2023/07/08 12:37:08;;;;;;;;;;;30.50;59.10;;;;;;5100893;28;19962;-72
2023/07/08 12:39:35;;;;;;;;;;;30.40;58.30;;;;;;5099409;28;20358;-71
2023/07/08 12:42:00;;;;;;;;;;;30.30;59.00;;;;;;5103513;28;19912;-72
2023/07/08 12:44:26;;;;;;;;;;;30.20;58.20;;;;;;5096078;28;20289;-72
2023/07/08 12:46:54;;;;;;;;;;;30.10;59.20;;;;;;5096200;28;20353;-73
2023/07/08 12:49:20;;;;;;;;;;;30.10;59.60;;;;;;5096541;28;19911;-73
2023/07/08 12:51:46;;;;;;;;;;;30.20;59.40;;;;;;5111521;28;20285;-72
2023/07/08 12:54:12;;;;;;;;;;;30.10;58.90;;;;;;5116383;27;20344;-72
2023/07/08 12:56:39;;;;;;;;;;;29.90;57.30;;;;;;5116313;28;19904;-73
2023/07/08 12:59:05;;;;;;;;;;;29.80;58.00;;;;;;5116449;28;19908;-72
2023/07/08 13:01:33;;;;;;;;;;;29.80;61.60;;;;;;5116612;28;19911;-73
2023/07/08 13:04:06;;;;;;;;;;;29.90;59.70;;;;;;5115050;28;19903;-73
2023/07/08 13:06:33;;;;;;;;;;;30.00;58.70;;;;;;5116310;28;19972;-73